createdAt,value
2018-12-06T00:01:23.991Z,27.20
2018-12-06T00:03:51.517Z,25.77
2018-12-06T00:06:19.037Z,28.03
2018-12-06T00:08:46.551Z,26.03
2018-12-06T00:11:14.128Z,33.03
2018-12-06T00:13:41.657Z,25.17
2018-12-06T00:16:09.181Z,27.77
2018-12-06T00:18:36.713Z,28.47
2018-12-06T00:21:04.294Z,29.90
2018-12-06T00:23:31.833Z,27.30
2018-12-06T00:25:59.400Z,30.90
2018-12-06T00:28:26.965Z,33.93
2018-12-06T00:30:54.465Z,33.67
2018-12-06T00:33:21.969Z,35.43
2018-12-06T00:35:49.488Z,37.97
2018-12-06T00:38:17.004Z,40.50
2018-12-06T00:40:44.542Z,45.87
2018-12-06T00:43:12.048Z,42.60
2018-12-06T00:45:39.571Z,38.90
2018-12-06T00:48:07.083Z,42.53
2018-12-06T00:50:34.673Z,42.00
2018-12-06T00:53:02.185Z,40.10
2018-12-06T00:55:29.716Z,39.67
2018-12-06T00:57:57.221Z,39.87
2018-12-06T01:00:24.748Z,39.20
2018-12-06T01:02:52.260Z,37.90
2018-12-06T01:05:19.783Z,41.87
2018-12-06T01:07:47.301Z,37.87
2018-12-06T01:10:14.957Z,43.43
2018-12-06T01:12:42.457Z,40.53
2018-12-06T01:15:09.996Z,36.63
2018-12-06T01:17:37.515Z,41.50
2018-12-06T01:20:05.116Z,41.03
2018-12-06T01:22:32.637Z,38.33
2018-12-06T01:25:00.164Z,35.97
2018-12-06T01:27:27.682Z,43.33
2018-12-06T01:29:55.213Z,36.30
2018-12-06T01:32:22.716Z,40.37
2018-12-06T01:34:50.639Z,38.50
2018-12-06T01:37:18.154Z,43.00
2018-12-06T01:39:45.689Z,37.30
2018-12-06T01:42:13.374Z,49.50
2018-12-06T01:44:40.909Z,36.47
2018-12-06T01:47:08.423Z,33.97
2018-12-06T01:49:35.949Z,35.17
2018-12-06T01:52:03.531Z,40.00
2018-12-06T01:54:31.089Z,45.73
2018-12-06T01:56:58.603Z,42.80
2018-12-06T01:59:26.129Z,39.53
2018-12-06T02:01:53.629Z,37.50
2018-12-06T02:04:21.160Z,32.27
2018-12-06T02:09:20.826Z,35.53
2018-12-06T02:11:48.340Z,36.23
2018-12-06T02:14:15.856Z,37.67
2018-12-06T02:16:43.944Z,33.27
2018-12-06T02:19:11.622Z,41.77
2018-12-06T02:21:39.234Z,40.53
2018-12-06T02:24:06.805Z,33.17
2018-12-06T02:26:34.341Z,31.77
2018-12-06T02:29:01.853Z,33.27
2018-12-06T02:31:29.393Z,24.70
2018-12-06T02:34:10.062Z,25.03
2018-12-06T02:36:37.593Z,29.10
2018-12-06T02:39:06.441Z,33.03
2018-12-06T02:41:33.980Z,36.27
2018-12-06T02:44:01.493Z,32.07
2018-12-06T02:46:29.020Z,29.63
2018-12-06T02:48:56.557Z,26.97
2018-12-06T02:51:24.085Z,24.57
2018-12-06T02:53:51.598Z,29.37
2018-12-06T02:56:19.139Z,24.77
2018-12-06T02:58:46.661Z,25.20
2018-12-06T03:01:14.200Z,26.83
2018-12-06T03:03:41.700Z,23.20
2018-12-06T03:06:09.320Z,22.33
2018-12-06T03:08:36.837Z,25.77
2018-12-06T03:11:04.363Z,22.07
2018-12-06T03:13:31.894Z,21.70
2018-12-06T03:15:59.436Z,24.67
2018-12-06T03:18:26.950Z,22.90
2018-12-06T03:20:54.455Z,22.73
2018-12-06T03:23:21.984Z,21.70
2018-12-06T03:25:49.504Z,23.73
2018-12-06T03:28:17.035Z,26.33
2018-12-06T03:30:44.553Z,22.53
2018-12-06T03:33:12.073Z,21.63
2018-12-06T03:35:39.584Z,23.57
2018-12-06T03:38:07.125Z,20.40
2018-12-06T03:40:34.705Z,25.67
2018-12-06T03:43:02.228Z,24.73
2018-12-06T03:45:29.750Z,22.43
2018-12-06T03:47:57.273Z,21.40
2018-12-06T03:50:24.787Z,24.80
2018-12-06T03:52:52.325Z,22.87
2018-12-06T03:55:20.032Z,25.10
2018-12-06T03:57:47.558Z,26.03
2018-12-06T04:00:15.061Z,24.30
2018-12-06T04:02:42.573Z,20.23
2018-12-06T04:05:10.088Z,22.83
2018-12-06T04:07:37.596Z,21.77
2018-12-06T04:10:05.772Z,23.83
2018-12-06T04:12:33.284Z,19.10
2018-12-06T04:15:00.837Z,20.17
2018-12-06T04:17:28.344Z,20.63
2018-12-06T04:19:55.864Z,25.93
2018-12-06T04:22:23.369Z,26.67
2018-12-06T04:24:51.019Z,20.67
2018-12-06T04:27:18.523Z,20.50
2018-12-06T04:29:46.056Z,19.47
2018-12-06T04:32:13.575Z,22.70
2018-12-06T04:34:41.101Z,27.37
2018-12-06T04:37:08.627Z,19.57
2018-12-06T04:39:36.172Z,20.40
2018-12-06T04:42:03.680Z,22.90
2018-12-06T04:44:31.191Z,23.83
2018-12-06T04:46:58.708Z,24.00
2018-12-06T04:49:26.231Z,22.17
2018-12-06T04:51:53.732Z,25.03
2018-12-06T04:54:21.270Z,21.30
2018-12-06T04:56:48.776Z,22.57
2018-12-06T04:59:16.432Z,23.60
2018-12-06T05:01:43.941Z,24.73
2018-12-06T05:04:11.626Z,32.40
2018-12-06T05:06:39.153Z,26.37
2018-12-06T05:09:06.830Z,26.43
2018-12-06T05:11:34.349Z,26.47
2018-12-06T05:14:01.869Z,27.00
2018-12-06T05:16:29.409Z,25.03
2018-12-06T05:18:56.922Z,24.27
2018-12-06T05:21:24.453Z,27.50
2018-12-06T05:23:51.955Z,22.37
2018-12-06T05:26:19.561Z,26.30
2018-12-06T05:28:47.068Z,28.93
2018-12-06T05:31:14.601Z,25.17
2018-12-06T05:33:42.115Z,23.47
2018-12-06T05:36:09.654Z,23.80
2018-12-06T05:38:37.148Z,23.53
2018-12-06T05:41:04.689Z,27.67
2018-12-06T05:43:32.196Z,29.73
2018-12-06T05:45:59.717Z,27.00
2018-12-06T05:48:27.219Z,27.70
2018-12-06T05:50:54.754Z,40.53
2018-12-06T05:53:22.258Z,26.57
2018-12-06T05:55:49.780Z,28.43
2018-12-06T05:58:17.273Z,37.80
2018-12-06T06:00:44.788Z,29.70
2018-12-06T06:03:12.285Z,33.13
2018-12-06T06:05:39.812Z,27.37
2018-12-06T06:08:07.309Z,26.03
2018-12-06T06:10:34.829Z,28.00
2018-12-06T06:13:02.327Z,26.20
2018-12-06T06:15:29.868Z,29.97
2018-12-06T06:17:57.378Z,29.57
2018-12-06T06:20:24.875Z,27.33
2018-12-06T06:22:52.482Z,30.87
2018-12-06T06:25:19.993Z,28.90
2018-12-06T06:27:47.536Z,30.53
2018-12-06T06:30:15.037Z,31.00
2018-12-06T06:32:42.676Z,31.10
2018-12-06T06:35:10.177Z,34.07
2018-12-06T06:37:37.704Z,35.20
2018-12-06T06:40:06.093Z,34.33
2018-12-06T06:42:33.641Z,33.33
2018-12-06T06:45:01.153Z,35.47
2018-12-06T06:47:28.713Z,35.70
2018-12-06T06:49:56.331Z,37.40
2018-12-06T06:52:23.860Z,42.70
2018-12-06T06:54:51.369Z,42.40
2018-12-06T06:57:18.887Z,37.57
2018-12-06T06:59:46.387Z,40.43
2018-12-06T07:02:13.925Z,35.67
2018-12-06T07:04:41.433Z,32.10
2018-12-06T07:07:08.948Z,36.57
2018-12-06T07:09:36.456Z,37.10
2018-12-06T07:12:04.126Z,37.23
2018-12-06T07:14:31.793Z,32.83
2018-12-06T07:16:59.320Z,42.50
2018-12-06T07:19:26.828Z,44.13
2018-12-06T07:21:54.362Z,44.07
2018-12-06T07:24:21.859Z,41.43
2018-12-06T07:26:49.360Z,39.23
2018-12-06T07:29:16.884Z,35.30
2018-12-06T07:31:44.384Z,33.30
2018-12-06T07:34:11.927Z,36.20
2018-12-06T07:36:39.451Z,36.40
2018-12-06T07:39:07.420Z,34.47
2018-12-06T07:41:34.932Z,34.43
2018-12-06T07:44:12.565Z,36.90
2018-12-06T07:46:40.068Z,50.27
2018-12-06T07:49:07.592Z,34.50
2018-12-06T07:51:35.107Z,31.77
2018-12-06T07:54:02.657Z,38.07
2018-12-06T07:56:30.184Z,31.93
2018-12-06T07:58:57.723Z,29.93
2018-12-06T08:01:25.230Z,28.53
2018-12-06T08:03:53.181Z,36.97
2018-12-06T08:06:20.762Z,31.83
2018-12-06T08:08:48.284Z,32.63
2018-12-06T08:11:15.789Z,27.53
2018-12-06T08:13:43.383Z,30.30
2018-12-06T08:16:10.904Z,31.07
2018-12-06T08:18:38.433Z,36.57
2018-12-06T08:21:05.950Z,38.17
2018-12-06T08:23:33.494Z,41.40
2018-12-06T08:26:01.002Z,39.50
2018-12-06T08:28:28.597Z,40.27
2018-12-06T08:30:56.100Z,47.13
2018-12-06T08:33:23.648Z,70.80
2018-12-06T08:35:51.169Z,53.90
2018-12-06T08:38:18.718Z,227.73
2018-12-06T08:40:46.231Z,57.37
2018-12-06T08:43:13.739Z,73.40
2018-12-06T08:45:41.362Z,56.53
2018-12-06T08:48:08.879Z,47.87
2018-12-06T08:50:36.416Z,60.57
2018-12-06T08:53:03.920Z,53.30
2018-12-06T08:55:31.444Z,46.23
2018-12-06T08:57:58.959Z,53.30
2018-12-06T09:00:26.499Z,45.27
2018-12-06T09:02:54.016Z,49.40
2018-12-06T09:05:21.544Z,43.93
2018-12-06T09:07:49.108Z,45.63
2018-12-06T09:10:16.642Z,36.27
2018-12-06T09:12:44.153Z,38.10
2018-12-06T09:15:11.744Z,33.27
2018-12-06T09:17:39.252Z,28.90
2018-12-06T09:20:06.918Z,33.23
2018-12-06T09:22:34.426Z,26.87
2018-12-06T09:25:01.953Z,25.63
2018-12-06T09:27:29.459Z,24.23
2018-12-06T09:29:56.988Z,24.83
2018-12-06T09:32:24.485Z,25.83
2018-12-06T09:34:52.004Z,29.13
2018-12-06T09:37:19.572Z,28.60
2018-12-06T09:39:55.488Z,25.20
2018-12-06T09:42:23.049Z,28.07
2018-12-06T09:44:50.572Z,24.50
2018-12-06T09:47:18.068Z,20.77
2018-12-06T09:49:45.588Z,21.50
2018-12-06T09:52:13.150Z,19.43
2018-12-06T09:54:40.668Z,19.83
2018-12-06T09:57:08.159Z,22.27
2018-12-06T09:59:35.746Z,20.43
2018-12-06T10:02:03.250Z,19.10
2018-12-06T10:04:30.764Z,17.17
2018-12-06T10:06:58.263Z,18.60
2018-12-06T10:09:25.783Z,17.90
2018-12-06T10:11:53.275Z,19.07
2018-12-06T10:14:20.782Z,20.20
2018-12-06T10:16:48.452Z,19.40
2018-12-06T10:19:15.952Z,21.47
2018-12-06T10:21:43.543Z,21.97
2018-12-06T10:24:11.044Z,21.90
2018-12-06T10:26:38.563Z,22.50
2018-12-06T10:29:06.059Z,23.63
2018-12-06T10:31:33.576Z,26.80
2018-12-06T10:34:01.083Z,27.67
2018-12-06T10:36:28.601Z,28.70
2018-12-06T10:38:56.096Z,28.53
2018-12-06T10:41:23.612Z,26.77
2018-12-06T10:43:51.256Z,35.00
2018-12-06T10:46:20.744Z,31.93
2018-12-06T10:48:48.248Z,33.10
2018-12-06T10:51:27.760Z,44.70
2018-12-06T10:53:55.264Z,32.50
2018-12-06T10:56:22.780Z,40.63
2018-12-06T10:58:50.275Z,32.00
2018-12-06T11:01:17.800Z,31.47
2018-12-06T11:03:59.079Z,32.67
2018-12-06T11:06:26.604Z,36.17
2018-12-06T11:08:54.101Z,34.80
2018-12-06T11:11:21.755Z,48.50
2018-12-06T11:13:49.531Z,36.17
2018-12-06T11:16:17.120Z,39.17
2018-12-06T11:18:44.614Z,38.90
2018-12-06T11:21:12.139Z,47.10
2018-12-06T11:23:39.641Z,34.70
2018-12-06T11:26:07.188Z,34.07
2018-12-06T11:28:34.693Z,32.77
2018-12-06T11:31:02.202Z,43.30
2018-12-06T11:33:29.725Z,30.33
2018-12-06T11:35:57.227Z,38.57
2018-12-06T11:38:24.751Z,30.57
2018-12-06T11:40:52.247Z,29.20
2018-12-06T11:43:19.776Z,29.37
2018-12-06T11:45:47.279Z,27.23
2018-12-06T11:48:14.810Z,40.50
2018-12-06T11:50:42.312Z,29.50
2018-12-06T11:53:09.840Z,29.90
2018-12-06T11:55:37.350Z,29.27
2018-12-06T11:58:11.327Z,35.50
2018-12-06T12:00:34.392Z,29.87
2018-12-06T12:03:01.916Z,31.40
2018-12-06T12:05:29.421Z,28.73
2018-12-06T12:07:56.949Z,34.57
2018-12-06T12:10:24.508Z,30.50
2018-12-06T12:12:52.036Z,30.47
2018-12-06T12:15:19.537Z,33.33
2018-12-06T12:18:24.407Z,28.17
2018-12-06T12:20:51.908Z,29.60
2018-12-06T12:23:19.436Z,35.13
2018-12-06T12:25:47.950Z,29.80
2018-12-06T12:28:15.682Z,24.80
2018-12-06T12:30:43.180Z,25.30
2018-12-06T12:33:10.704Z,25.83
2018-12-06T12:35:38.212Z,25.13
2018-12-06T12:38:05.731Z,23.70
2018-12-06T12:40:33.231Z,24.03
2018-12-06T12:43:00.760Z,31.17
2018-12-06T12:45:28.260Z,23.13
2018-12-06T12:47:55.794Z,28.27
2018-12-06T12:50:23.379Z,21.33
2018-12-06T12:52:50.903Z,26.03
2018-12-06T12:55:18.416Z,23.63
2018-12-06T12:57:45.942Z,22.23
2018-12-06T13:00:13.507Z,19.33
2018-12-06T13:02:41.024Z,18.53
2018-12-06T13:05:08.529Z,30.37
2018-12-06T13:07:36.053Z,21.80
2018-12-06T13:10:04.437Z,20.30
2018-12-06T13:12:31.968Z,20.23
2018-12-06T13:14:59.472Z,22.17
2018-12-06T13:17:27.054Z,24.33
2018-12-06T13:19:54.588Z,19.53
2018-12-06T13:22:22.104Z,17.80
2018-12-06T13:24:49.699Z,19.70
2018-12-06T13:27:17.223Z,23.53
2018-12-06T13:29:44.772Z,20.37
2018-12-06T13:32:12.349Z,23.63
2018-12-06T13:34:39.876Z,27.57
2018-12-06T13:37:07.384Z,18.33
2018-12-06T13:39:34.920Z,18.37
2018-12-06T13:42:02.440Z,18.27
2018-12-06T13:44:29.976Z,18.77
2018-12-06T13:46:57.495Z,20.27
2018-12-06T13:49:25.027Z,22.57
2018-12-06T13:51:52.533Z,18.67
2018-12-06T13:54:26.779Z,20.77
2018-12-06T13:56:49.578Z,22.40
2018-12-06T13:59:17.125Z,23.43
2018-12-06T14:01:44.636Z,21.90
2018-12-06T14:04:12.178Z,20.60
2018-12-06T14:06:39.686Z,21.83
2018-12-06T14:09:07.288Z,24.97
2018-12-06T14:11:34.816Z,22.03
2018-12-06T14:14:04.355Z,23.40
2018-12-06T14:16:31.874Z,28.17
2018-12-06T14:18:59.414Z,21.90
2018-12-06T14:21:26.921Z,22.50
2018-12-06T14:23:54.464Z,19.10
2018-12-06T14:26:21.985Z,21.87
2018-12-06T14:28:49.493Z,21.63
2018-12-06T14:31:17.024Z,17.37
2018-12-06T14:34:01.526Z,20.33
2018-12-06T14:36:29.040Z,20.20
2018-12-06T14:38:56.540Z,17.57
2018-12-06T14:41:24.065Z,18.60
2018-12-06T14:43:51.578Z,19.47
2018-12-06T14:46:19.104Z,17.00
2018-12-06T14:48:46.604Z,17.13
2018-12-06T14:51:14.195Z,16.33
2018-12-06T14:53:41.708Z,17.87
2018-12-06T14:56:09.231Z,17.47
2018-12-06T14:58:36.735Z,15.60
2018-12-06T15:01:04.264Z,15.93
2018-12-06T15:03:31.760Z,15.77
2018-12-06T15:05:59.289Z,18.30
2018-12-06T15:08:26.789Z,16.33
2018-12-06T15:10:54.307Z,16.70
2018-12-06T15:13:21.806Z,18.57
2018-12-06T15:15:49.345Z,20.27
2018-12-06T15:18:16.843Z,19.67
2018-12-06T15:20:44.364Z,20.37
2018-12-06T15:23:11.864Z,18.10
2018-12-06T15:25:41.925Z,18.73
2018-12-06T15:28:08.911Z,16.83
2018-12-06T15:30:36.435Z,15.17
2018-12-06T15:33:04.016Z,15.27
2018-12-06T15:35:31.540Z,14.50
2018-12-06T15:37:59.039Z,15.43
2018-12-06T15:40:26.567Z,14.77
2018-12-06T15:42:54.190Z,17.70
2018-12-06T15:45:21.805Z,13.40
2018-12-06T15:47:49.308Z,13.30
2018-12-06T15:50:16.835Z,13.13
2018-12-06T15:52:44.344Z,13.50
2018-12-06T15:55:11.945Z,13.13
2018-12-06T15:57:39.452Z,19.60
2018-12-06T16:00:09.721Z,12.27
2018-12-06T16:02:37.461Z,13.27
2018-12-06T16:05:05.929Z,14.07
2018-12-06T16:07:33.475Z,12.13
2018-12-06T16:10:01.072Z,15.73
2018-12-06T16:12:28.579Z,12.57
2018-12-06T16:14:56.092Z,12.80
2018-12-06T16:17:23.628Z,14.73
2018-12-06T16:19:51.136Z,14.77
2018-12-06T16:22:18.660Z,13.53
2018-12-06T16:24:46.197Z,11.67
2018-12-06T16:27:13.784Z,11.13
2018-12-06T16:29:41.288Z,12.43
2018-12-06T16:32:08.811Z,13.77
2018-12-06T16:34:36.320Z,11.87
2018-12-06T16:37:03.849Z,13.17
2018-12-06T16:39:31.348Z,14.10
2018-12-06T16:41:58.870Z,16.43
2018-12-06T16:44:26.380Z,35.77
2018-12-06T16:46:53.904Z,29.03
2018-12-06T16:49:21.415Z,17.60
2018-12-06T16:51:48.932Z,17.60
2018-12-06T16:54:16.435Z,13.03
2018-12-06T16:56:44.054Z,15.87
2018-12-06T16:59:11.626Z,16.40
2018-12-06T17:01:39.344Z,16.37
2018-12-06T17:04:06.857Z,13.17
2018-12-06T17:06:34.382Z,13.77
2018-12-06T17:09:01.951Z,12.23
2018-12-06T17:11:29.483Z,12.17
2018-12-06T17:13:56.985Z,13.57
2018-12-06T17:16:24.516Z,12.23
2018-12-06T17:18:52.024Z,12.77
2018-12-06T17:21:19.560Z,11.27
2018-12-06T17:23:47.066Z,12.60
2018-12-06T17:26:14.580Z,13.83
2018-12-06T17:28:42.079Z,13.60
2018-12-06T17:31:09.595Z,15.03
2018-12-06T17:33:37.105Z,14.33
2018-12-06T17:36:04.709Z,15.13
2018-12-06T17:38:32.384Z,12.30
2018-12-06T17:40:59.959Z,12.80
2018-12-06T17:43:27.488Z,13.23
2018-12-06T17:45:55.004Z,11.87
2018-12-06T17:48:22.505Z,11.87
2018-12-06T17:50:50.026Z,12.90
2018-12-06T17:53:17.549Z,11.30
2018-12-06T17:55:51.891Z,12.30
2018-12-06T17:58:19.474Z,10.63
2018-12-06T18:00:46.978Z,11.70
2018-12-06T18:03:14.496Z,11.57
2018-12-06T18:05:42.075Z,12.27
2018-12-06T18:08:09.595Z,13.37
2018-12-06T18:10:37.311Z,13.60
2018-12-06T18:13:04.836Z,13.27
2018-12-06T18:15:32.403Z,15.47
2018-12-06T18:17:59.927Z,14.43
2018-12-06T18:20:27.423Z,14.17
2018-12-06T18:22:54.953Z,16.30
2018-12-06T18:25:22.457Z,17.10
2018-12-06T18:27:49.989Z,16.90
2018-12-06T18:30:17.484Z,18.43
2018-12-06T18:32:45.073Z,21.13
2018-12-06T18:35:12.596Z,18.13
2018-12-06T18:37:40.128Z,16.57
2018-12-06T18:40:07.709Z,16.50
2018-12-06T18:42:35.223Z,15.50
2018-12-06T18:45:02.795Z,17.73
2018-12-06T18:47:30.325Z,14.30
2018-12-06T18:49:57.825Z,14.30
2018-12-06T18:52:25.364Z,14.97
2018-12-06T18:54:52.886Z,14.67
2018-12-06T18:57:20.413Z,13.17
2018-12-06T18:59:47.923Z,12.13
2018-12-06T19:02:15.472Z,11.40
2018-12-06T19:04:42.976Z,12.00
2018-12-06T19:07:10.489Z,9.60
2018-12-06T19:09:37.996Z,9.87
2018-12-06T19:12:05.520Z,8.90
2018-12-06T19:14:33.083Z,9.60
2018-12-06T19:17:00.628Z,9.13
2018-12-06T19:19:28.215Z,9.23
2018-12-06T19:21:55.737Z,8.23
2018-12-06T19:24:29.472Z,8.07
2018-12-06T19:26:56.983Z,7.73
2018-12-06T19:29:24.484Z,7.63
2018-12-06T19:31:52.016Z,6.67
2018-12-06T19:34:19.512Z,6.70
2018-12-06T19:36:47.050Z,12.60
2018-12-06T19:39:14.561Z,6.73
2018-12-06T19:41:42.072Z,10.83
2018-12-06T19:44:09.596Z,6.27
2018-12-06T19:46:37.119Z,5.60
2018-12-06T19:49:04.640Z,5.93
2018-12-06T19:51:32.148Z,7.30
2018-12-06T19:53:59.676Z,73.07
2018-12-06T19:56:27.171Z,9.60
2018-12-06T19:58:54.701Z,24.03
2018-12-06T20:01:22.196Z,33.13
2018-12-06T20:03:49.719Z,10.80
2018-12-06T20:06:17.350Z,13.30
2018-12-06T20:08:45.048Z,8.07
2018-12-06T20:11:12.623Z,14.43
2018-12-06T20:13:40.143Z,7.03
2018-12-06T20:16:07.647Z,36.80
2018-12-06T20:18:35.168Z,13.83
2018-12-06T20:21:02.669Z,8.77
2018-12-06T20:23:30.184Z,4.93
2018-12-06T20:25:57.795Z,7.70
2018-12-06T20:28:26.624Z,7.30
2018-12-06T20:30:54.626Z,6.57
2018-12-06T20:33:22.148Z,13.40
2018-12-06T20:35:49.635Z,9.17
2018-12-06T20:38:17.152Z,8.00
2018-12-06T20:40:44.648Z,5.33
2018-12-06T20:43:12.172Z,6.20
2018-12-06T20:45:39.673Z,26.57
2018-12-06T20:48:07.191Z,15.07
2018-12-06T20:50:34.684Z,8.50
2018-12-06T20:53:02.209Z,14.70
2018-12-06T20:55:29.704Z,7.57
2018-12-06T20:57:57.224Z,7.17
2018-12-06T21:00:24.739Z,6.53
2018-12-06T21:02:52.375Z,8.97
2018-12-06T21:05:19.893Z,7.93
2018-12-06T21:07:47.431Z,7.70
2018-12-06T21:10:15.205Z,7.77
2018-12-06T21:12:42.707Z,9.90
2018-12-06T21:15:10.247Z,11.67
2018-12-06T21:17:37.761Z,10.33
2018-12-06T21:20:05.908Z,9.07
2018-12-06T21:22:33.421Z,9.47
2018-12-06T21:25:00.941Z,8.67
2018-12-06T21:27:28.455Z,9.07
2018-12-06T21:29:55.996Z,12.00
2018-12-06T21:32:23.501Z,11.87
2018-12-06T21:34:51.019Z,11.53
2018-12-06T21:37:18.525Z,10.17
2018-12-06T21:39:46.060Z,30.20
2018-12-06T21:42:13.561Z,8.33
2018-12-06T21:44:41.101Z,6.10
2018-12-06T21:47:10.587Z,5.50
2018-12-06T21:49:38.112Z,6.00
2018-12-06T21:52:05.631Z,6.03
2018-12-06T21:54:33.168Z,6.63
2018-12-06T21:57:00.663Z,5.57
2018-12-06T21:59:28.193Z,4.50
2018-12-06T22:02:07.608Z,4.90
2018-12-06T22:04:35.144Z,5.20
2018-12-06T22:07:02.647Z,4.73
2018-12-06T22:09:30.159Z,4.93
2018-12-06T22:11:57.656Z,3.70
2018-12-06T22:14:25.199Z,2.73
2018-12-06T22:16:52.706Z,4.67
2018-12-06T22:19:20.243Z,5.07
2018-12-06T22:21:47.735Z,3.00
2018-12-06T22:24:15.259Z,3.07
2018-12-06T22:26:42.770Z,2.47
2018-12-06T22:29:10.332Z,2.33
2018-12-06T22:31:37.940Z,2.90
2018-12-06T22:34:11.586Z,2.50
2018-12-06T22:36:39.083Z,2.10
2018-12-06T22:39:07.736Z,2.83
2018-12-06T22:41:35.511Z,2.90
2018-12-06T22:44:03.043Z,2.63
2018-12-06T22:46:30.545Z,2.67
2018-12-06T22:48:58.076Z,2.40
2018-12-06T22:51:25.576Z,2.60
2018-12-06T22:53:53.185Z,2.43
2018-12-06T22:56:20.739Z,7.27
2018-12-06T22:58:48.378Z,4.90
2018-12-06T23:01:17.911Z,3.00
2018-12-06T23:03:45.446Z,3.20
2018-12-06T23:06:12.977Z,3.10
2018-12-06T23:08:40.483Z,2.20
2018-12-06T23:11:08.009Z,2.33
2018-12-06T23:13:35.511Z,2.73
2018-12-06T23:16:03.031Z,4.13
2018-12-06T23:18:30.528Z,3.67
2018-12-06T23:20:58.075Z,3.33
2018-12-06T23:23:25.612Z,4.80
2018-12-06T23:25:53.128Z,2.27
2018-12-06T23:28:20.632Z,2.67
2018-12-06T23:30:48.166Z,2.47
2018-12-06T23:33:15.686Z,4.50
2018-12-06T23:35:43.292Z,1.70
2018-12-06T23:38:10.808Z,2.00
2018-12-06T23:40:38.324Z,1.97
2018-12-06T23:43:05.827Z,2.13
2018-12-06T23:45:33.354Z,3.00
2018-12-06T23:48:00.934Z,2.47
2018-12-06T23:50:28.496Z,1.60
2018-12-06T23:52:55.985Z,1.60
2018-12-06T23:55:23.513Z,2.20
2018-12-06T23:57:51.006Z,2.80
